createdAt,value
2023-04-02T00:00:15.283Z,7.02
2023-04-02T00:02:50.853Z,7.03
2023-04-02T00:05:53.048Z,7.04
2023-04-02T00:08:26.605Z,7.06
2023-04-02T00:10:56.777Z,7.06
2023-04-02T00:13:31.029Z,7.06
2023-04-02T00:16:03.249Z,7.06
2023-04-02T00:18:33.157Z,7.07
2023-04-02T00:21:04.698Z,7.10
2023-04-02T00:23:33.992Z,7.11
2023-04-02T00:26:04.544Z,7.14
2023-04-02T00:28:34.432Z,7.13
2023-04-02T00:31:03.760Z,7.11
2023-04-02T00:33:33.581Z,7.09
2023-04-02T00:36:02.969Z,7.08
2023-04-02T00:38:35.222Z,7.07
2023-04-02T00:41:07.481Z,7.08
2023-04-02T00:43:37.122Z,7.09
2023-04-02T00:46:13.078Z,7.09
2023-04-02T00:48:44.140Z,7.09
2023-04-02T00:51:18.424Z,7.07
2023-04-02T00:53:47.961Z,7.06
2023-04-02T00:56:23.274Z,7.06
2023-04-02T00:58:53.514Z,7.07
2023-04-02T01:01:26.303Z,7.10
2023-04-02T01:04:01.410Z,7.14
2023-04-02T01:06:31.298Z,7.17
2023-04-02T01:09:07.668Z,7.19
2023-04-02T01:11:44.416Z,7.19
2023-04-02T01:14:18.334Z,7.18
2023-04-02T01:16:50.896Z,7.17
2023-04-02T01:19:27.298Z,7.09
2023-04-02T01:21:56.424Z,7.12
2023-04-02T01:24:28.118Z,7.11
2023-04-02T01:27:00.821Z,7.12
2023-04-02T01:29:31.630Z,7.15
2023-04-02T01:32:02.038Z,7.17
2023-04-02T01:34:30.994Z,7.18
2023-04-02T01:37:07.035Z,7.20
2023-04-02T01:39:40.578Z,7.22
2023-04-02T01:42:12.423Z,7.21
2023-04-02T01:44:43.461Z,7.20
2023-04-02T01:47:13.281Z,7.15
2023-04-02T01:49:42.678Z,7.21
2023-04-02T01:52:11.978Z,7.22
2023-04-02T01:54:43.327Z,7.25
2023-04-02T01:57:12.780Z,7.26
2023-04-02T01:59:41.716Z,7.24
2023-04-02T02:02:12.263Z,7.23
2023-04-02T02:04:42.640Z,7.21
2023-04-02T02:07:14.724Z,7.20
2023-04-02T02:09:44.965Z,7.20
2023-04-02T02:12:15.412Z,7.20
2023-04-02T02:14:48.565Z,7.19
2023-04-02T02:17:19.813Z,7.18
2023-04-02T02:19:49.179Z,7.16
2023-04-02T02:22:20.119Z,7.15
2023-04-02T02:24:49.667Z,7.14
2023-04-02T02:27:40.240Z,7.14
2023-04-02T02:30:12.747Z,7.16
2023-04-02T02:32:44.540Z,7.19
2023-04-02T02:35:17.255Z,7.20
2023-04-02T02:37:50.169Z,7.20
2023-04-02T02:40:20.705Z,7.19
2023-04-02T02:42:50.502Z,7.17
2023-04-02T02:45:21.008Z,7.13
2023-04-02T02:47:52.309Z,7.09
2023-04-02T02:50:22.151Z,7.08
2023-04-02T02:52:55.017Z,7.08
2023-04-02T02:55:25.867Z,7.08
2023-04-02T02:58:01.783Z,7.02
2023-04-02T03:00:35.706Z,7.06
2023-04-02T03:03:08.055Z,7.04
2023-04-02T03:05:37.515Z,7.02
2023-04-02T03:08:12.766Z,6.99
2023-04-02T03:10:42.997Z,6.97
2023-04-02T03:13:13.754Z,6.94
2023-04-02T03:15:44.070Z,6.95
2023-04-02T03:18:15.105Z,6.97
2023-04-02T03:20:45.082Z,7.00
2023-04-02T03:23:17.442Z,7.01
2023-04-02T03:25:50.615Z,7.02
2023-04-02T03:28:21.230Z,7.02
2023-04-02T03:30:51.289Z,7.00
2023-04-02T03:33:21.616Z,6.98
2023-04-02T03:35:54.621Z,6.97
2023-04-02T03:38:26.200Z,6.95
2023-04-02T03:41:01.392Z,6.97
2023-04-02T03:43:32.201Z,6.98
2023-04-02T03:46:04.182Z,6.99
2023-04-02T03:48:35.268Z,7.00
2023-04-02T03:51:06.650Z,7.00
2023-04-02T03:53:39.697Z,7.00
2023-04-02T03:56:09.628Z,6.97
2023-04-02T03:58:40.222Z,6.95
2023-04-02T04:01:13.741Z,6.92
2023-04-02T04:03:44.152Z,6.91
2023-04-02T04:06:15.560Z,6.92
2023-04-02T04:08:46.024Z,6.94
2023-04-02T04:11:17.323Z,6.96
2023-04-02T04:13:48.504Z,6.98
2023-04-02T04:16:18.859Z,6.98
2023-04-02T04:18:49.174Z,7.00
2023-04-02T04:21:31.032Z,6.99
2023-04-02T04:24:06.882Z,6.98
2023-04-02T04:26:40.284Z,6.97
2023-04-02T04:29:12.597Z,6.83
2023-04-02T04:31:47.232Z,6.92
2023-04-02T04:34:17.234Z,6.90
2023-04-02T04:36:48.120Z,6.92
2023-04-02T04:39:19.245Z,6.93
2023-04-02T04:41:50.716Z,6.93
2023-04-02T04:44:21.891Z,6.94
2023-04-02T04:46:54.180Z,6.95
2023-04-02T04:49:25.379Z,6.95
2023-04-02T04:51:56.130Z,6.94
2023-04-02T04:54:28.169Z,6.88
2023-04-02T04:57:01.180Z,6.87
2023-04-02T04:59:33.781Z,6.84
2023-04-02T05:02:03.107Z,6.81
2023-04-02T05:04:33.845Z,6.80
2023-04-02T05:07:03.974Z,6.79
2023-04-02T05:09:34.253Z,6.79
2023-04-02T05:12:08.168Z,6.79
2023-04-02T05:14:39.546Z,6.79
2023-04-02T05:17:11.657Z,6.79
2023-04-02T05:19:42.612Z,6.80
2023-04-02T05:22:17.964Z,6.82
2023-04-02T05:25:19.958Z,6.81
2023-04-02T05:27:49.569Z,6.81
2023-04-02T05:30:29.788Z,6.79
2023-04-02T05:33:00.331Z,6.73
2023-04-02T05:35:34.141Z,6.77
2023-04-02T05:38:06.528Z,6.76
2023-04-02T05:40:37.161Z,6.75
2023-04-02T05:43:09.313Z,6.72
2023-04-02T05:45:41.996Z,6.74
2023-04-02T05:48:14.373Z,6.76
2023-04-02T05:50:46.173Z,6.78
2023-04-02T05:53:24.861Z,6.79
2023-04-02T05:55:57.286Z,6.83
2023-04-02T05:58:36.235Z,6.80
2023-04-02T06:01:17.693Z,6.89
2023-04-02T06:03:48.751Z,6.88
2023-04-02T06:06:20.849Z,6.87
2023-04-02T06:08:51.732Z,6.88
2023-04-02T06:11:24.551Z,6.88
2023-04-02T06:13:55.073Z,6.77
2023-04-02T06:16:26.501Z,6.73
2023-04-02T06:18:56.386Z,6.58
2023-04-02T06:21:27.171Z,6.53
2023-04-02T06:23:57.793Z,6.41
2023-04-02T06:26:30.149Z,6.33
2023-04-02T06:29:01.650Z,6.25
2023-04-02T06:31:35.913Z,6.17
2023-04-02T06:34:07.938Z,6.09
2023-04-02T06:36:37.378Z,6.04
2023-04-02T06:39:10.110Z,6.02
2023-04-02T06:41:40.359Z,6.02
2023-04-02T06:44:36.776Z,5.97
2023-04-02T06:47:31.036Z,5.88
2023-04-02T06:50:04.308Z,5.88
2023-04-02T06:52:36.716Z,5.89
2023-04-02T06:55:22.432Z,5.91
2023-04-02T06:57:54.615Z,6.02
2023-04-02T07:00:29.100Z,6.08
2023-04-02T07:02:58.822Z,6.10
2023-04-02T07:05:29.090Z,6.15
2023-04-02T07:07:59.717Z,6.21
2023-04-02T07:10:29.091Z,6.28
2023-04-02T07:12:59.618Z,6.25
2023-04-02T07:15:28.514Z,6.18
2023-04-02T07:17:59.254Z,6.06
2023-04-02T07:20:30.173Z,5.95
2023-04-02T07:23:01.897Z,5.79
2023-04-02T07:25:33.178Z,5.60
2023-04-02T07:28:03.132Z,5.44
2023-04-02T07:30:34.147Z,5.52
2023-04-02T07:33:03.498Z,5.54
2023-04-02T07:35:32.853Z,5.61
2023-04-02T07:38:03.476Z,5.68
2023-04-02T07:40:35.363Z,5.74
2023-04-02T07:43:05.150Z,5.80
2023-04-02T07:45:38.121Z,5.91
2023-04-02T07:48:08.583Z,5.99
2023-04-02T07:50:38.673Z,5.97
2023-04-02T07:53:08.828Z,5.90
2023-04-02T07:55:38.890Z,5.81
2023-04-02T07:58:09.379Z,5.77
2023-04-02T08:00:38.647Z,5.78
2023-04-02T08:03:07.993Z,5.81
2023-04-02T08:05:37.553Z,5.82
2023-04-02T08:08:07.250Z,5.82
2023-04-02T08:10:36.317Z,5.83
2023-04-02T08:13:05.536Z,5.79
2023-04-02T08:15:34.670Z,5.69
2023-04-02T08:18:05.924Z,5.56
2023-04-02T08:20:35.136Z,5.44
2023-04-02T08:23:07.013Z,5.17
2023-04-02T08:25:36.388Z,5.13
2023-04-02T08:28:06.143Z,5.00
2023-04-02T08:30:35.105Z,5.03
2023-04-02T08:33:04.448Z,5.02
2023-04-02T08:35:33.768Z,5.01
2023-04-02T08:38:04.296Z,5.01
2023-04-02T08:40:34.486Z,5.01
2023-04-02T08:43:05.029Z,4.98
2023-04-02T08:45:36.817Z,5.02
2023-04-02T08:48:06.474Z,5.04
2023-04-02T08:50:36.290Z,5.05
2023-04-02T08:53:05.848Z,5.10
2023-04-02T08:55:40.359Z,5.14
2023-04-02T08:58:13.930Z,5.06
2023-04-02T09:00:43.070Z,4.94
2023-04-02T09:03:14.108Z,4.91
2023-04-02T09:05:43.697Z,4.92
2023-04-02T09:08:16.387Z,4.94
2023-04-02T09:10:46.156Z,4.91
2023-04-02T09:13:20.251Z,4.86
2023-04-02T09:15:50.216Z,4.96
2023-04-02T09:18:19.549Z,5.07
2023-04-02T09:20:51.189Z,5.02
2023-04-02T09:23:21.510Z,4.96
2023-04-02T09:26:03.390Z,4.87
2023-04-02T09:28:33.523Z,4.81
2023-04-02T09:31:07.465Z,4.66
2023-04-02T09:33:44.285Z,4.62
2023-04-02T09:36:29.789Z,4.68
2023-04-02T09:38:59.626Z,4.74
2023-04-02T09:41:29.552Z,4.83
2023-04-02T09:44:13.531Z,4.86
2023-04-02T09:46:49.890Z,4.86
2023-04-02T09:49:18.887Z,4.89
2023-04-02T09:51:50.761Z,4.98
2023-04-02T09:54:19.750Z,4.97
2023-04-02T09:57:02.699Z,4.96
2023-04-02T09:59:31.996Z,5.11
2023-04-02T10:02:03.761Z,5.16
2023-04-02T10:04:35.374Z,5.14
2023-04-02T10:07:06.370Z,5.19
2023-04-02T10:09:36.419Z,5.41
2023-04-02T10:12:05.781Z,5.55
2023-04-02T10:14:35.473Z,5.71
2023-04-02T10:17:06.364Z,5.92
2023-04-02T10:19:35.451Z,6.14
2023-04-02T10:22:04.745Z,6.15
2023-04-02T10:24:33.525Z,6.05
2023-04-02T10:27:04.348Z,6.07
2023-04-02T10:29:36.811Z,6.23
2023-04-02T10:32:08.675Z,6.44
2023-04-02T10:34:39.436Z,6.52
2023-04-02T10:37:11.934Z,6.48
2023-04-02T10:39:41.433Z,6.53
2023-04-02T10:42:13.165Z,6.62
2023-04-02T10:44:44.796Z,6.56
2023-04-02T10:47:16.718Z,6.38
2023-04-02T10:49:47.417Z,6.13
2023-04-02T10:52:17.753Z,5.92
2023-04-02T10:54:48.856Z,5.78
2023-04-02T10:57:30.088Z,5.58
2023-04-02T11:00:18.698Z,5.49
2023-04-02T11:02:49.768Z,5.39
2023-04-02T11:05:24.581Z,5.27
2023-04-02T11:07:58.605Z,5.17
2023-04-02T11:10:28.675Z,5.04
2023-04-02T11:12:58.955Z,4.92
2023-04-02T11:15:27.715Z,4.82
2023-04-02T11:17:56.597Z,4.92
2023-04-02T11:20:40.684Z,4.96
2023-04-02T11:23:11.683Z,5.04
2023-04-02T11:25:40.473Z,5.09
2023-04-02T11:28:15.060Z,5.16
2023-04-02T11:30:44.044Z,5.11
2023-04-02T11:33:36.521Z,5.16
2023-04-02T11:36:09.540Z,5.21
2023-04-02T11:38:52.966Z,5.28
2023-04-02T11:41:35.726Z,5.33
2023-04-02T11:44:05.409Z,5.41
2023-04-02T11:46:51.891Z,5.48
2023-04-02T11:49:34.319Z,5.68
2023-04-02T11:52:11.492Z,5.88
2023-04-02T11:54:41.248Z,6.02
2023-04-02T11:57:14.120Z,6.14
2023-04-02T11:59:44.052Z,6.20
2023-04-02T12:02:14.664Z,6.26
2023-04-02T12:04:56.883Z,6.34
2023-04-02T12:07:35.047Z,6.33
2023-04-02T12:10:05.068Z,6.21
2023-04-02T12:12:35.606Z,6.05
2023-04-02T12:15:05.042Z,6.00
2023-04-02T12:17:35.133Z,5.98
2023-04-02T12:20:09.664Z,5.89
2023-04-02T12:22:39.019Z,5.89
2023-04-02T12:25:21.668Z,5.85
2023-04-02T12:27:50.682Z,5.80
2023-04-02T12:30:21.330Z,5.81
2023-04-02T12:32:50.445Z,5.89
2023-04-02T12:35:27.469Z,5.99
2023-04-02T12:37:57.260Z,5.80
2023-04-02T12:40:27.178Z,6.14
2023-04-02T12:42:56.016Z,6.24
2023-04-02T12:45:28.607Z,6.21
2023-04-02T12:47:58.265Z,6.16
2023-04-02T12:50:27.137Z,6.11
2023-04-02T12:52:58.295Z,6.21
2023-04-02T12:55:27.217Z,6.20
2023-04-02T12:57:57.455Z,6.41
2023-04-02T13:00:33.706Z,6.55
2023-04-02T13:03:08.964Z,6.81
2023-04-02T13:05:39.676Z,6.97
2023-04-02T13:08:15.079Z,7.04
2023-04-02T13:10:44.096Z,7.00
2023-04-02T13:13:14.395Z,6.82
2023-04-02T13:15:48.957Z,6.64
2023-04-02T13:18:21.449Z,6.46
2023-04-02T13:20:59.690Z,6.35
2023-04-02T13:23:36.081Z,6.28
2023-04-02T13:26:06.820Z,6.31
2023-04-02T13:28:35.748Z,6.29
2023-04-02T13:31:04.618Z,6.15
2023-04-02T13:33:33.578Z,6.02
2023-04-02T13:36:02.356Z,5.82
2023-04-02T13:38:31.311Z,5.62
2023-04-02T13:41:00.244Z,5.52
2023-04-02T13:43:29.036Z,5.45
2023-04-02T13:46:04.302Z,5.41
2023-04-02T13:48:33.535Z,5.40
2023-04-02T13:51:02.457Z,5.39
2023-04-02T13:53:31.362Z,5.41
2023-04-02T13:56:02.362Z,5.27
2023-04-02T13:58:31.205Z,5.20
2023-04-02T14:01:00.613Z,5.10
2023-04-02T14:03:29.700Z,5.01
2023-04-02T14:06:00.774Z,4.98
2023-04-02T14:08:32.090Z,4.86
2023-04-02T14:11:04.498Z,4.86
2023-04-02T14:13:49.597Z,4.87
2023-04-02T14:16:22.218Z,4.79
2023-04-02T14:18:55.798Z,4.77
2023-04-02T14:21:27.066Z,4.78
2023-04-02T14:23:59.861Z,4.82
2023-04-02T14:26:30.007Z,4.73
2023-04-02T14:29:01.364Z,4.66
2023-04-02T14:31:32.516Z,4.64
2023-04-02T14:34:02.832Z,4.63
2023-04-02T14:36:32.936Z,4.70
2023-04-02T14:39:04.184Z,4.76
2023-04-02T14:41:33.889Z,4.71
2023-04-02T14:44:06.052Z,4.65
2023-04-02T14:46:37.830Z,4.66
2023-04-02T14:49:08.201Z,4.63
2023-04-02T14:51:37.652Z,4.51
2023-04-02T14:54:08.311Z,4.37
2023-04-02T14:56:39.417Z,4.22
2023-04-02T14:59:15.610Z,4.13
2023-04-02T15:01:45.013Z,4.09
2023-04-02T15:04:15.418Z,4.01
2023-04-02T15:06:45.694Z,3.96
2023-04-02T15:09:16.295Z,3.89
2023-04-02T15:11:45.675Z,3.82
2023-04-02T15:14:15.943Z,3.77
2023-04-02T15:16:44.995Z,3.78
2023-04-02T15:19:15.296Z,3.80
2023-04-02T15:21:57.769Z,3.80
2023-04-02T15:24:33.824Z,3.70
2023-04-02T15:27:09.259Z,3.88
2023-04-02T15:29:43.973Z,3.90
2023-04-02T15:32:17.106Z,3.77
2023-04-02T15:34:46.499Z,3.90
2023-04-02T15:37:17.398Z,3.86
2023-04-02T15:39:50.366Z,3.84
2023-04-02T15:42:21.433Z,3.77
2023-04-02T15:45:03.960Z,3.81
2023-04-02T15:47:36.707Z,3.71
2023-04-02T15:50:09.649Z,3.65
2023-04-02T15:52:39.543Z,3.62
2023-04-02T15:55:14.902Z,3.56
2023-04-02T15:58:06.211Z,3.50
2023-04-02T16:00:35.260Z,3.36
2023-04-02T16:03:13.389Z,3.39
2023-04-02T16:05:43.489Z,3.43
2023-04-02T16:08:21.385Z,3.43
2023-04-02T16:10:51.147Z,3.38
2023-04-02T16:13:21.524Z,3.32
2023-04-02T16:15:52.522Z,3.27
2023-04-02T16:18:25.495Z,3.22
2023-04-02T16:20:54.403Z,3.21
2023-04-02T16:23:24.883Z,3.19
2023-04-02T16:25:57.291Z,3.12
2023-04-02T16:28:28.353Z,3.02
2023-04-02T16:30:58.828Z,2.96
2023-04-02T16:33:33.493Z,2.94
2023-04-02T16:36:06.010Z,2.96
2023-04-02T16:38:42.536Z,2.98
2023-04-02T16:41:14.274Z,2.96
2023-04-02T16:43:45.012Z,2.91
2023-04-02T16:46:22.546Z,2.86
2023-04-02T16:49:00.582Z,2.84
2023-04-02T16:51:30.718Z,2.81
2023-04-02T16:54:02.490Z,2.79
2023-04-02T16:56:35.610Z,2.78
2023-04-02T16:59:08.387Z,2.77
2023-04-02T17:01:40.129Z,2.73
2023-04-02T17:04:12.015Z,2.70
2023-04-02T17:06:43.259Z,2.69
2023-04-02T17:09:19.847Z,2.71
2023-04-02T17:11:54.268Z,2.68
2023-04-02T17:14:28.448Z,2.62
2023-04-02T17:17:00.372Z,2.55
2023-04-02T17:19:30.234Z,2.48
2023-04-02T17:22:00.683Z,2.41
2023-04-02T17:24:31.110Z,2.35
2023-04-02T17:27:01.069Z,2.33
2023-04-02T17:29:33.050Z,2.30
2023-04-02T17:32:02.610Z,2.25
2023-04-02T17:34:32.179Z,2.20
2023-04-02T17:37:03.992Z,2.15
2023-04-02T17:39:36.455Z,2.12
2023-04-02T17:42:08.563Z,2.13
2023-04-02T17:44:44.759Z,2.11
2023-04-02T17:47:15.053Z,2.09
2023-04-02T17:49:47.327Z,2.07
2023-04-02T17:52:17.274Z,2.05
2023-04-02T17:54:48.307Z,2.05
2023-04-02T17:57:28.768Z,2.04
2023-04-02T18:00:01.117Z,2.06
2023-04-02T18:02:40.686Z,2.07
2023-04-02T18:05:17.312Z,2.06
2023-04-02T18:07:47.823Z,2.06
2023-04-02T18:13:03.209Z,2.09
2023-04-02T18:15:42.844Z,2.09
2023-04-02T18:18:17.354Z,2.10
2023-04-02T18:20:48.295Z,2.10
2023-04-02T18:23:20.198Z,2.11
2023-04-02T18:25:52.484Z,2.14
2023-04-02T18:28:28.580Z,2.16
2023-04-02T18:31:00.464Z,2.17
2023-04-02T18:33:36.598Z,2.17
2023-04-02T18:36:07.191Z,2.18
2023-04-02T18:38:38.947Z,2.18
2023-04-02T18:41:12.324Z,2.16
2023-04-02T18:43:47.189Z,2.22
2023-04-02T18:46:20.338Z,2.23
2023-04-02T18:48:51.359Z,2.22
2023-04-02T18:51:22.399Z,2.20
2023-04-02T18:53:53.760Z,2.18
2023-04-02T18:56:23.350Z,2.17
2023-04-02T18:58:56.860Z,2.20
2023-04-02T19:01:27.892Z,2.17
2023-04-02T19:03:58.363Z,2.22
2023-04-02T19:06:29.304Z,2.21
2023-04-02T19:08:59.827Z,2.20
2023-04-02T19:11:31.161Z,2.19
2023-04-02T19:14:01.557Z,2.21
2023-04-02T19:16:36.334Z,2.23
2023-04-02T19:19:07.959Z,2.24
2023-04-02T19:21:39.445Z,2.25
2023-04-02T19:24:13.980Z,2.25
2023-04-02T19:26:44.862Z,2.25
2023-04-02T19:29:16.819Z,2.23
2023-04-02T19:32:22.035Z,2.26
2023-04-02T19:34:53.904Z,2.30
2023-04-02T19:37:23.562Z,2.31
2023-04-02T19:40:01.281Z,2.30
2023-04-02T19:42:37.647Z,2.26
2023-04-02T19:45:07.112Z,2.29
2023-04-02T19:47:36.117Z,2.29
2023-04-02T19:50:05.323Z,2.30
2023-04-02T19:52:34.136Z,2.34
2023-04-02T19:55:02.981Z,2.34
2023-04-02T19:57:31.788Z,2.32
2023-04-02T20:00:00.759Z,2.27
2023-04-02T20:02:29.971Z,2.19
2023-04-02T20:04:59.383Z,2.09
2023-04-02T20:07:28.216Z,1.98
2023-04-02T20:09:56.983Z,1.91
2023-04-02T20:12:25.853Z,1.84
2023-04-02T20:14:54.799Z,1.73
2023-04-02T20:17:23.632Z,1.72
2023-04-02T20:19:52.685Z,1.67
2023-04-02T20:22:21.644Z,1.61
2023-04-02T20:24:50.699Z,1.53
2023-04-02T20:27:22.028Z,1.48
2023-04-02T20:29:51.100Z,1.44
2023-04-02T20:32:21.650Z,1.43
2023-04-02T20:34:50.488Z,1.41
2023-04-02T20:37:19.212Z,1.36
2023-04-02T20:39:48.406Z,1.30
2023-04-02T20:42:17.723Z,1.28
2023-04-02T20:44:46.959Z,1.27
2023-04-02T20:47:16.228Z,1.22
2023-04-02T20:49:45.044Z,1.18
2023-04-02T20:52:13.796Z,1.28
2023-04-02T20:54:42.989Z,1.29
2023-04-02T20:57:12.062Z,1.30
2023-04-02T20:59:41.059Z,1.31
2023-04-02T21:02:11.080Z,1.32
2023-04-02T21:04:39.961Z,1.35
2023-04-02T21:07:08.736Z,1.42
2023-04-02T21:09:37.632Z,1.50
2023-04-02T21:12:07.164Z,1.55
2023-04-02T21:14:38.922Z,1.57
2023-04-02T21:17:07.984Z,1.58
2023-04-02T21:19:36.980Z,1.59
2023-04-02T21:22:06.030Z,1.55
2023-04-02T21:24:34.950Z,1.62
2023-04-02T21:27:03.772Z,1.63
2023-04-02T21:29:32.560Z,1.68
2023-04-02T21:32:05.560Z,1.73
2023-04-02T21:34:40.038Z,1.76
2023-04-02T21:37:08.827Z,1.78
2023-04-02T21:39:37.742Z,1.79
2023-04-02T21:42:06.527Z,1.79
2023-04-02T21:44:35.209Z,1.80
2023-04-02T21:47:03.995Z,1.80
2023-04-02T21:49:32.855Z,1.80
2023-04-02T21:52:01.560Z,1.80
2023-04-02T21:54:30.445Z,1.83
2023-04-02T21:56:59.918Z,1.86
2023-04-02T21:59:28.840Z,1.88
2023-04-02T22:01:57.611Z,1.87
2023-04-02T22:04:28.275Z,1.86
2023-04-02T22:06:57.158Z,1.85
2023-04-02T22:09:30.660Z,1.83
2023-04-02T22:11:59.989Z,1.76
2023-04-02T22:14:29.157Z,1.80
2023-04-02T22:16:58.708Z,1.79
2023-04-02T22:19:27.944Z,1.81
2023-04-02T22:21:56.793Z,1.85
2023-04-02T22:24:25.807Z,1.88
2023-04-02T22:26:54.588Z,1.88
2023-04-02T22:29:23.307Z,1.88
2023-04-02T22:31:52.434Z,1.87
2023-04-02T22:34:21.186Z,1.85
2023-04-02T22:36:49.890Z,1.84
2023-04-02T22:39:19.114Z,1.81
2023-04-02T22:41:47.864Z,1.79
2023-04-02T22:44:16.941Z,1.78
2023-04-02T22:46:45.771Z,1.81
2023-04-02T22:49:18.927Z,1.85
2023-04-02T22:51:47.760Z,1.88
2023-04-02T22:54:16.652Z,1.88
2023-04-02T22:56:45.409Z,1.84
2023-04-02T22:59:14.729Z,1.88
2023-04-02T23:01:43.546Z,1.87
2023-04-02T23:04:12.754Z,1.87
2023-04-02T23:06:41.510Z,1.88
2023-04-02T23:09:10.905Z,1.89
2023-04-02T23:11:39.900Z,1.89
2023-04-02T23:14:09.143Z,1.89
2023-04-02T23:16:37.991Z,1.89
2023-04-02T23:19:06.721Z,1.92
2023-04-02T23:21:35.492Z,1.97
2023-04-02T23:24:04.508Z,2.01
2023-04-02T23:26:33.508Z,2.03
2023-04-02T23:29:02.511Z,2.02
2023-04-02T23:31:34.350Z,2.01
2023-04-02T23:34:03.217Z,2.00
2023-04-02T23:36:33.187Z,1.98
2023-04-02T23:39:02.600Z,1.98
2023-04-02T23:41:31.722Z,1.99
2023-04-02T23:44:00.527Z,2.00
2023-04-02T23:46:29.666Z,1.99
2023-04-02T23:48:59.330Z,1.99
2023-04-02T23:51:29.383Z,2.02
2023-04-02T23:53:58.148Z,2.05
2023-04-02T23:56:27.470Z,2.09
2023-04-02T23:58:56.342Z,2.10
